createdAt,value
2023-02-28T00:00:24.680Z,41.49
2023-02-28T00:02:52.275Z,38.62
2023-02-28T00:05:22.964Z,37.01
2023-02-28T00:07:50.718Z,36.98
2023-02-28T00:10:21.736Z,36.31
2023-02-28T00:12:49.311Z,36.79
2023-02-28T00:15:16.930Z,37.67
2023-02-28T00:17:44.498Z,38.14
2023-02-28T00:20:12.898Z,38.29
2023-02-28T00:22:40.776Z,36.74
2023-02-28T00:25:08.690Z,39.49
2023-02-28T00:27:36.768Z,36.81
2023-02-28T00:30:05.754Z,36.69
2023-02-28T00:32:33.488Z,38.69
2023-02-28T00:35:02.275Z,37.23
2023-02-28T00:37:29.550Z,36.12
2023-02-28T00:39:57.536Z,36.00
2023-02-28T00:42:27.497Z,35.97
2023-02-28T00:44:55.234Z,35.20
2023-02-28T00:47:22.730Z,34.17
2023-02-28T00:49:50.085Z,33.86
2023-02-28T00:52:17.253Z,34.04
2023-02-28T00:54:48.209Z,38.00
2023-02-28T00:57:15.649Z,39.61
2023-02-28T00:59:42.900Z,39.31
2023-02-28T01:02:10.373Z,40.12
2023-02-28T01:04:38.130Z,39.53
2023-02-28T01:07:05.374Z,39.31
2023-02-28T01:09:32.863Z,40.52
2023-02-28T01:12:00.178Z,39.76
2023-02-28T01:14:27.421Z,38.42
2023-02-28T01:16:54.921Z,37.75
2023-02-28T01:19:22.178Z,37.69
2023-02-28T01:21:49.417Z,37.47
2023-02-28T01:24:16.893Z,37.80
2023-02-28T01:26:45.596Z,37.09
2023-02-28T01:29:12.860Z,35.01
2023-02-28T01:31:40.538Z,35.46
2023-02-28T01:34:09.198Z,34.79
2023-02-28T01:36:37.317Z,34.34
2023-02-28T01:39:04.967Z,34.54
2023-02-28T01:41:33.050Z,34.75
2023-02-28T01:44:05.984Z,33.34
2023-02-28T01:46:34.376Z,34.04
2023-02-28T01:49:03.327Z,34.61
2023-02-28T01:51:39.534Z,34.59
2023-02-28T01:54:14.491Z,34.76
2023-02-28T01:56:44.772Z,34.20
2023-02-28T01:59:13.719Z,34.74
2023-02-28T02:01:40.953Z,33.97
2023-02-28T02:04:08.456Z,35.89
2023-02-28T02:06:37.596Z,37.72
2023-02-28T02:09:05.118Z,37.98
2023-02-28T02:11:32.687Z,38.60
2023-02-28T02:14:18.336Z,38.15
2023-02-28T02:16:54.911Z,39.98
2023-02-28T02:19:40.910Z,38.42
2023-02-28T02:22:26.532Z,37.61
2023-02-28T02:25:04.564Z,35.37
2023-02-28T02:27:46.243Z,35.89
2023-02-28T02:30:29.208Z,35.13
2023-02-28T02:33:01.175Z,34.36
2023-02-28T02:35:43.802Z,36.71
2023-02-28T02:38:18.781Z,37.80
2023-02-28T02:40:53.218Z,34.56
2023-02-28T02:43:22.130Z,35.39
2023-02-28T02:45:50.948Z,34.83
2023-02-28T02:48:19.064Z,34.55
2023-02-28T02:50:47.938Z,35.22
2023-02-28T02:53:15.457Z,36.33
2023-02-28T02:55:44.793Z,34.91
2023-02-28T02:58:14.275Z,35.33
2023-02-28T03:00:47.835Z,36.15
2023-02-28T03:03:15.356Z,36.11
2023-02-28T03:05:49.641Z,34.86
2023-02-28T03:08:17.175Z,34.74
2023-02-28T03:10:47.132Z,34.94
2023-02-28T03:13:35.981Z,36.27
2023-02-28T03:16:05.243Z,36.40
2023-02-28T03:18:55.222Z,35.13
2023-02-28T03:21:28.953Z,35.07
2023-02-28T03:24:09.871Z,34.83
2023-02-28T03:26:39.482Z,34.04
2023-02-28T03:29:26.918Z,34.28
2023-02-28T03:31:56.700Z,33.76
2023-02-28T03:34:43.266Z,34.05
2023-02-28T03:37:12.606Z,34.05
2023-02-28T03:39:50.546Z,34.39
2023-02-28T03:42:28.588Z,33.71
2023-02-28T03:44:57.916Z,34.03
2023-02-28T03:47:30.212Z,34.49
2023-02-28T03:50:02.478Z,34.46
2023-02-28T03:52:32.884Z,34.00
2023-02-28T03:55:03.699Z,33.64
2023-02-28T03:57:32.007Z,34.20
2023-02-28T04:00:22.368Z,34.20
2023-02-28T04:02:53.670Z,33.59
2023-02-28T04:05:21.331Z,33.16
2023-02-28T04:07:49.331Z,33.10
2023-02-28T04:10:17.006Z,32.41
2023-02-28T04:12:44.274Z,32.74
2023-02-28T04:15:12.363Z,33.10
2023-02-28T04:17:39.950Z,33.09
2023-02-28T04:20:10.655Z,33.37
2023-02-28T04:22:38.362Z,32.51
2023-02-28T04:25:06.769Z,32.11
2023-02-28T04:27:34.122Z,31.89
2023-02-28T04:30:01.480Z,32.00
2023-02-28T04:32:28.974Z,32.03
2023-02-28T04:34:56.339Z,33.08
2023-02-28T04:37:28.846Z,32.43
2023-02-28T04:39:56.375Z,32.53
2023-02-28T04:42:23.572Z,32.33
2023-02-28T04:44:50.797Z,32.54
2023-02-28T04:47:18.469Z,31.79
2023-02-28T04:49:45.657Z,32.46
2023-02-28T04:52:14.289Z,32.32
2023-02-28T04:54:41.745Z,31.68
2023-02-28T04:57:08.921Z,32.30
2023-02-28T04:59:36.098Z,32.54
2023-02-28T05:02:07.856Z,32.25
2023-02-28T05:04:35.428Z,33.05
2023-02-28T05:07:02.995Z,32.86
2023-02-28T05:09:30.626Z,32.22
2023-02-28T05:11:57.867Z,32.10
2023-02-28T05:14:25.096Z,32.41
2023-02-28T05:17:11.185Z,32.00
2023-02-28T05:19:38.670Z,31.40
2023-02-28T05:22:05.839Z,31.48
2023-02-28T05:24:33.112Z,32.33
2023-02-28T05:27:04.424Z,32.60
2023-02-28T05:29:31.626Z,32.90
2023-02-28T05:31:58.874Z,33.00
2023-02-28T05:34:26.451Z,32.53
2023-02-28T05:36:53.688Z,32.68
2023-02-28T05:39:20.954Z,33.16
2023-02-28T05:41:48.478Z,33.09
2023-02-28T05:44:16.210Z,33.91
2023-02-28T05:46:43.487Z,34.02
2023-02-28T05:49:11.053Z,34.19
2023-02-28T05:51:40.812Z,34.61
2023-02-28T05:54:08.294Z,33.44
2023-02-28T05:56:36.488Z,34.58
2023-02-28T05:59:04.222Z,33.63
2023-02-28T06:01:32.905Z,33.66
2023-02-28T06:04:01.668Z,33.95
2023-02-28T06:06:30.103Z,34.75
2023-02-28T06:08:57.841Z,33.84
2023-02-28T06:11:28.745Z,33.33
2023-02-28T06:13:57.553Z,32.56
2023-02-28T06:16:25.396Z,32.94
2023-02-28T06:18:54.345Z,32.17
2023-02-28T06:21:21.740Z,32.81
2023-02-28T06:23:49.198Z,33.12
2023-02-28T06:26:16.758Z,30.80
2023-02-28T06:28:43.946Z,30.82
2023-02-28T06:31:12.161Z,31.46
2023-02-28T06:33:39.740Z,32.45
2023-02-28T06:36:07.723Z,33.99
2023-02-28T06:38:35.473Z,35.17
2023-02-28T06:41:02.721Z,34.63
2023-02-28T06:43:31.137Z,35.68
2023-02-28T06:45:59.904Z,34.62
2023-02-28T06:48:28.642Z,33.90
2023-02-28T06:51:02.976Z,36.02
2023-02-28T06:53:30.821Z,35.12
2023-02-28T06:55:58.141Z,32.66
2023-02-28T06:58:25.471Z,33.00
2023-02-28T07:00:53.385Z,34.36
2023-02-28T07:03:20.658Z,35.03
2023-02-28T07:05:47.988Z,32.09
2023-02-28T07:08:15.481Z,30.78
2023-02-28T07:10:42.986Z,31.22
2023-02-28T07:13:10.605Z,31.40
2023-02-28T07:15:41.174Z,32.69
2023-02-28T07:18:09.733Z,36.43
2023-02-28T07:20:37.487Z,35.54
2023-02-28T07:23:05.788Z,33.41
2023-02-28T07:25:33.428Z,33.18
2023-02-28T07:28:01.275Z,34.48
2023-02-28T07:30:28.982Z,33.58
2023-02-28T07:32:57.108Z,33.20
2023-02-28T07:35:24.490Z,32.56
2023-02-28T07:37:52.470Z,31.66
2023-02-28T07:40:19.886Z,32.78
2023-02-28T07:42:47.081Z,30.81
2023-02-28T07:45:18.406Z,31.38
2023-02-28T07:47:45.721Z,31.64
2023-02-28T07:50:14.193Z,31.65
2023-02-28T07:52:42.023Z,31.93
2023-02-28T07:55:09.624Z,31.78
2023-02-28T07:57:37.127Z,31.75
2023-02-28T08:00:06.339Z,34.53
2023-02-28T08:02:38.913Z,32.33
2023-02-28T08:05:07.669Z,31.26
2023-02-28T08:07:35.053Z,31.93
2023-02-28T08:10:02.273Z,31.18
2023-02-28T08:12:29.767Z,31.72
2023-02-28T08:14:57.205Z,31.50
2023-02-28T08:17:24.520Z,31.85
2023-02-28T08:19:52.050Z,32.83
2023-02-28T08:22:19.310Z,32.84
2023-02-28T08:24:46.733Z,32.86
2023-02-28T08:27:14.295Z,33.04
2023-02-28T08:29:41.846Z,32.64
2023-02-28T08:32:17.505Z,32.80
2023-02-28T08:34:48.311Z,34.57
2023-02-28T08:37:15.633Z,30.97
2023-02-28T08:39:42.991Z,32.07
2023-02-28T08:42:10.605Z,32.58
2023-02-28T08:44:37.846Z,31.83
2023-02-28T08:47:05.607Z,32.22
2023-02-28T08:49:33.766Z,31.68
2023-02-28T08:52:01.366Z,33.42
2023-02-28T08:54:31.722Z,32.62
2023-02-28T08:56:59.542Z,33.08
2023-02-28T08:59:26.840Z,33.60
2023-02-28T09:01:54.108Z,33.01
2023-02-28T09:04:23.387Z,33.03
2023-02-28T09:06:52.195Z,33.71
2023-02-28T09:09:20.060Z,32.86
2023-02-28T09:11:48.088Z,33.88
2023-02-28T09:14:15.826Z,34.02
2023-02-28T09:16:43.603Z,33.58
2023-02-28T09:19:13.124Z,33.07
2023-02-28T09:21:41.143Z,32.07
2023-02-28T09:24:09.155Z,32.44
2023-02-28T09:26:43.151Z,32.25
2023-02-28T09:29:17.720Z,31.55
2023-02-28T09:31:45.594Z,30.49
2023-02-28T09:34:12.912Z,31.20
2023-02-28T09:36:45.812Z,31.96
2023-02-28T09:39:16.614Z,32.29
2023-02-28T09:41:51.074Z,31.00
2023-02-28T09:44:38.163Z,30.86
2023-02-28T09:47:25.962Z,29.95
2023-02-28T09:49:53.517Z,30.64
2023-02-28T09:52:25.663Z,29.91
2023-02-28T09:54:53.376Z,31.17
2023-02-28T09:57:40.132Z,30.74
2023-02-28T10:00:35.522Z,30.36
2023-02-28T10:03:24.674Z,30.38
2023-02-28T10:06:04.644Z,31.04
2023-02-28T10:08:53.464Z,29.71
2023-02-28T10:11:23.826Z,28.78
2023-02-28T10:14:05.533Z,30.29
2023-02-28T10:16:37.244Z,29.98
2023-02-28T10:19:11.261Z,29.18
2023-02-28T10:21:47.714Z,28.38
2023-02-28T10:24:24.435Z,30.49
2023-02-28T10:26:53.770Z,29.87
2023-02-28T10:29:21.596Z,29.40
2023-02-28T10:31:49.303Z,29.66
2023-02-28T10:34:17.737Z,29.32
2023-02-28T10:36:46.367Z,29.48
2023-02-28T10:39:37.517Z,29.17
2023-02-28T10:42:05.725Z,29.34
2023-02-28T10:44:33.522Z,29.06
2023-02-28T10:47:01.260Z,28.39
2023-02-28T10:49:30.177Z,27.98
2023-02-28T10:52:00.218Z,27.87
2023-02-28T10:54:31.922Z,28.19
2023-02-28T10:57:19.654Z,27.52
2023-02-28T10:59:53.592Z,27.37
2023-02-28T11:02:37.448Z,27.72
2023-02-28T11:05:31.120Z,27.50
2023-02-28T11:08:17.772Z,28.64
2023-02-28T11:10:47.409Z,26.99
2023-02-28T11:13:20.850Z,28.28
2023-02-28T11:15:53.715Z,27.67
2023-02-28T11:18:40.311Z,27.01
2023-02-28T11:21:09.176Z,27.91
2023-02-28T11:23:38.377Z,28.78
2023-02-28T11:26:10.662Z,27.28
2023-02-28T11:28:40.937Z,27.27
2023-02-28T11:31:17.643Z,27.82
2023-02-28T11:33:52.046Z,27.09
2023-02-28T11:36:27.881Z,27.34
2023-02-28T11:39:03.489Z,26.07
2023-02-28T11:41:56.207Z,26.04
2023-02-28T11:44:56.088Z,27.99
2023-02-28T11:47:35.518Z,28.31
2023-02-28T11:50:20.338Z,28.24
2023-02-28T11:53:17.083Z,27.65
2023-02-28T11:55:55.955Z,27.88
2023-02-28T11:58:42.077Z,27.93
2023-02-28T12:01:22.960Z,26.60
2023-02-28T12:03:53.786Z,27.20
2023-02-28T12:06:27.184Z,28.40
2023-02-28T12:08:57.656Z,28.17
2023-02-28T12:11:37.191Z,26.91
2023-02-28T12:14:10.992Z,27.27
2023-02-28T12:16:47.573Z,29.08
2023-02-28T12:19:28.846Z,26.98
2023-02-28T12:22:37.776Z,27.67
2023-02-28T12:25:20.039Z,28.14
2023-02-28T12:27:47.757Z,29.59
2023-02-28T12:30:21.282Z,29.07
2023-02-28T12:32:49.824Z,30.62
2023-02-28T12:35:22.554Z,29.66
2023-02-28T12:38:02.455Z,29.08
2023-02-28T12:40:33.308Z,28.44
2023-02-28T12:43:01.745Z,28.54
2023-02-28T12:45:49.717Z,29.60
2023-02-28T12:48:20.736Z,29.90
2023-02-28T12:50:48.584Z,30.48
2023-02-28T12:53:34.270Z,27.86
2023-02-28T12:56:01.767Z,27.67
2023-02-28T12:58:39.727Z,27.85
2023-02-28T13:01:28.900Z,29.73
2023-02-28T13:04:27.309Z,27.87
2023-02-28T13:07:19.679Z,29.20
2023-02-28T13:09:56.832Z,29.17
2023-02-28T13:12:24.456Z,29.00
2023-02-28T13:14:51.654Z,30.87
2023-02-28T13:17:22.692Z,29.71
2023-02-28T13:19:53.341Z,29.29
2023-02-28T13:22:26.545Z,29.00
2023-02-28T13:24:54.726Z,28.97
2023-02-28T13:27:27.111Z,28.57
2023-02-28T13:29:55.574Z,28.06
2023-02-28T13:32:26.104Z,29.48
2023-02-28T13:34:53.451Z,29.59
2023-02-28T13:37:26.894Z,29.05
2023-02-28T13:39:57.060Z,29.77
2023-02-28T13:42:35.427Z,28.98
2023-02-28T13:45:03.030Z,29.70
2023-02-28T13:47:47.876Z,30.49
2023-02-28T13:50:25.345Z,30.10
2023-02-28T13:53:14.633Z,30.62
2023-02-28T13:55:57.160Z,31.34
2023-02-28T13:58:27.946Z,31.07
2023-02-28T14:01:21.328Z,31.61
2023-02-28T14:04:15.564Z,33.12
2023-02-28T14:06:52.289Z,32.99
2023-02-28T14:09:26.130Z,32.38
2023-02-28T14:11:54.131Z,32.48
2023-02-28T14:14:37.165Z,32.61
2023-02-28T14:17:06.905Z,32.27
2023-02-28T14:19:37.266Z,32.69
2023-02-28T14:22:33.430Z,32.56
2023-02-28T14:25:01.361Z,32.23
2023-02-28T14:27:40.799Z,31.86
2023-02-28T14:30:34.352Z,32.26
2023-02-28T14:33:23.048Z,34.49
2023-02-28T14:35:56.982Z,33.69
2023-02-28T14:38:32.405Z,32.04
2023-02-28T14:41:04.675Z,32.12
2023-02-28T14:43:32.111Z,32.00
2023-02-28T14:46:02.105Z,31.94
2023-02-28T14:48:29.761Z,33.25
2023-02-28T14:51:01.664Z,32.15
2023-02-28T14:53:35.941Z,32.38
2023-02-28T14:56:03.671Z,31.49
2023-02-28T14:58:33.637Z,33.43
2023-02-28T15:01:03.939Z,32.89
2023-02-28T15:03:37.656Z,33.13
2023-02-28T15:06:14.334Z,32.82
2023-02-28T15:08:42.243Z,32.55
2023-02-28T15:11:20.299Z,32.06
2023-02-28T15:13:50.563Z,32.52
2023-02-28T15:16:21.985Z,32.15
2023-02-28T15:18:57.239Z,32.08
2023-02-28T15:21:26.869Z,32.38
2023-02-28T15:24:01.305Z,32.28
2023-02-28T15:26:35.719Z,32.25
2023-02-28T15:29:07.375Z,32.56
2023-02-28T15:31:56.147Z,33.62
2023-02-28T15:34:44.452Z,33.64
2023-02-28T15:37:28.179Z,33.05
2023-02-28T15:39:57.275Z,33.35
2023-02-28T15:42:29.356Z,33.99
2023-02-28T15:44:58.332Z,33.49
2023-02-28T15:47:28.642Z,33.99
2023-02-28T15:50:05.511Z,33.66
2023-02-28T15:52:43.024Z,33.72
2023-02-28T15:55:22.761Z,33.48
2023-02-28T15:57:59.776Z,33.08
2023-02-28T16:00:29.783Z,32.79
2023-02-28T16:02:57.760Z,33.02
2023-02-28T16:05:34.090Z,32.35
2023-02-28T16:08:13.136Z,33.73
2023-02-28T16:10:40.909Z,33.60
2023-02-28T16:13:12.970Z,33.39
2023-02-28T16:15:44.298Z,32.85
2023-02-28T16:18:13.428Z,34.49
2023-02-28T16:20:41.291Z,34.32
2023-02-28T16:23:09.216Z,34.99
2023-02-28T16:25:45.672Z,34.13
2023-02-28T16:28:20.721Z,35.36
2023-02-28T16:30:48.561Z,35.29
2023-02-28T16:33:16.468Z,36.67
2023-02-28T16:35:44.282Z,36.63
2023-02-28T16:38:12.051Z,37.51
2023-02-28T16:40:40.165Z,35.53
2023-02-28T16:43:11.408Z,35.61
2023-02-28T16:45:39.733Z,36.16
2023-02-28T16:48:13.702Z,36.68
2023-02-28T16:50:41.660Z,36.77
2023-02-28T16:53:09.182Z,37.47
2023-02-28T16:55:37.018Z,35.32
2023-02-28T16:58:04.980Z,37.03
2023-02-28T17:00:33.798Z,37.83
2023-02-28T17:03:05.759Z,36.61
2023-02-28T17:05:37.274Z,35.69
2023-02-28T17:08:04.839Z,36.06
2023-02-28T17:10:33.068Z,36.03
2023-02-28T17:13:14.146Z,36.67
2023-02-28T17:15:43.294Z,36.46
2023-02-28T17:18:16.585Z,36.47
2023-02-28T17:20:44.455Z,35.95
2023-02-28T17:23:13.115Z,35.36
2023-02-28T17:25:41.304Z,35.31
2023-02-28T17:28:10.737Z,36.00
2023-02-28T17:30:38.979Z,36.28
2023-02-28T17:33:07.002Z,36.19
2023-02-28T17:35:35.612Z,35.83
2023-02-28T17:38:03.470Z,35.94
2023-02-28T17:40:31.498Z,35.67
2023-02-28T17:43:00.085Z,35.71
2023-02-28T17:45:28.546Z,35.66
2023-02-28T17:47:56.904Z,36.09
2023-02-28T17:50:25.167Z,35.97
2023-02-28T17:52:53.327Z,35.42
2023-02-28T17:55:21.138Z,36.42
2023-02-28T17:57:49.046Z,36.83
2023-02-28T18:00:18.853Z,35.98
2023-02-28T18:02:47.565Z,36.27
2023-02-28T18:05:15.469Z,36.31
2023-02-28T18:07:43.855Z,36.19
2023-02-28T18:10:20.384Z,36.05
2023-02-28T18:12:52.137Z,36.77
2023-02-28T18:15:22.654Z,36.60
2023-02-28T18:17:51.438Z,35.64
2023-02-28T18:20:20.076Z,35.75
2023-02-28T18:22:48.923Z,36.09
2023-02-28T18:25:18.091Z,37.35
2023-02-28T18:27:58.719Z,36.83
2023-02-28T18:30:31.836Z,36.27
2023-02-28T18:33:04.598Z,37.55
2023-02-28T18:35:36.625Z,37.21
2023-02-28T18:38:12.321Z,36.95
2023-02-28T18:40:43.640Z,37.16
2023-02-28T18:43:14.500Z,36.16
2023-02-28T18:45:43.720Z,37.18
2023-02-28T18:48:16.118Z,36.83
2023-02-28T18:50:46.928Z,37.24
2023-02-28T18:53:15.829Z,37.38
2023-02-28T18:55:45.703Z,38.58
2023-02-28T18:58:15.109Z,38.52
2023-02-28T19:00:45.055Z,39.40
2023-02-28T19:03:15.440Z,40.11
2023-02-28T19:05:45.159Z,40.29
2023-02-28T19:08:14.704Z,39.37
2023-02-28T19:10:44.201Z,39.36
2023-02-28T19:13:12.533Z,39.13
2023-02-28T19:15:41.356Z,38.43
2023-02-28T19:18:10.485Z,38.86
2023-02-28T19:20:40.169Z,39.23
2023-02-28T19:23:10.906Z,37.89
2023-02-28T19:25:42.978Z,37.61
2023-02-28T19:28:12.154Z,38.36
2023-02-28T19:30:42.856Z,38.59
2023-02-28T19:33:12.992Z,39.41
2023-02-28T19:35:43.537Z,38.63
2023-02-28T19:38:14.153Z,38.71
2023-02-28T19:40:43.189Z,38.94
2023-02-28T19:43:15.707Z,39.51
2023-02-28T19:45:46.112Z,39.72
2023-02-28T19:48:17.073Z,39.53
2023-02-28T19:50:46.714Z,40.29
2023-02-28T19:53:16.071Z,40.32
2023-02-28T19:55:48.609Z,40.38
2023-02-28T19:58:18.378Z,39.61
2023-02-28T20:00:47.991Z,39.50
2023-02-28T20:03:19.114Z,39.02
2023-02-28T20:05:48.412Z,39.09
2023-02-28T20:08:18.184Z,38.99
2023-02-28T20:10:47.470Z,39.35
2023-02-28T20:13:16.807Z,40.00
2023-02-28T20:15:51.338Z,39.78
2023-02-28T20:18:19.932Z,39.60
2023-02-28T20:20:49.062Z,39.30
2023-02-28T20:23:18.174Z,39.38
2023-02-28T20:25:50.005Z,38.83
2023-02-28T20:28:20.034Z,38.95
2023-02-28T20:30:51.576Z,38.87
2023-02-28T20:33:20.897Z,37.99
2023-02-28T20:35:53.312Z,38.44
2023-02-28T20:38:22.649Z,39.02
2023-02-28T20:40:56.364Z,39.15
2023-02-28T20:43:24.789Z,39.72
2023-02-28T20:45:58.933Z,38.91
2023-02-28T20:48:28.912Z,39.10
2023-02-28T20:50:58.982Z,39.79
2023-02-28T20:53:28.220Z,40.46
2023-02-28T20:56:18.201Z,40.55
2023-02-28T20:58:48.347Z,39.82
2023-02-28T21:01:28.108Z,39.22
2023-02-28T21:03:59.560Z,39.42
2023-02-28T21:06:31.519Z,39.78
2023-02-28T21:09:00.011Z,39.25
2023-02-28T21:11:30.082Z,39.20
2023-02-28T21:14:06.857Z,39.21
2023-02-28T21:16:37.497Z,38.49
2023-02-28T21:19:06.793Z,38.43
2023-02-28T21:21:39.978Z,39.03
2023-02-28T21:24:08.187Z,38.72
2023-02-28T21:26:35.774Z,39.23
2023-02-28T21:29:04.559Z,40.37
2023-02-28T21:31:34.192Z,40.57
2023-02-28T21:34:04.042Z,40.30
2023-02-28T21:36:35.562Z,39.33
2023-02-28T21:39:10.105Z,39.16
2023-02-28T21:41:41.641Z,40.01
2023-02-28T21:44:19.336Z,40.32
2023-02-28T21:46:49.338Z,41.00
2023-02-28T21:49:17.512Z,40.76
2023-02-28T21:51:45.014Z,40.51
2023-02-28T21:54:13.103Z,39.96
2023-02-28T21:56:40.811Z,40.18
2023-02-28T21:59:09.691Z,40.06
2023-02-28T22:01:44.443Z,39.79
2023-02-28T22:04:21.593Z,39.97
2023-02-28T22:06:54.658Z,38.81
2023-02-28T22:09:22.845Z,38.59
2023-02-28T22:11:50.691Z,37.90
2023-02-28T22:14:18.586Z,38.35
2023-02-28T22:16:52.254Z,37.78
2023-02-28T22:19:23.145Z,37.87
2023-02-28T22:21:51.697Z,37.66
2023-02-28T22:24:20.858Z,38.02
2023-02-28T22:26:49.562Z,37.73
2023-02-28T22:29:17.318Z,40.46
2023-02-28T22:31:44.801Z,40.55
2023-02-28T22:34:12.981Z,40.22
2023-02-28T22:36:42.118Z,39.87
2023-02-28T22:39:10.532Z,39.33
2023-02-28T22:41:38.970Z,39.11
2023-02-28T22:44:07.400Z,38.82
2023-02-28T22:46:35.923Z,38.77
2023-02-28T22:49:05.283Z,38.21
2023-02-28T22:51:33.403Z,36.56
2023-02-28T22:54:02.018Z,35.85
2023-02-28T22:56:30.690Z,36.00
2023-02-28T22:58:59.870Z,36.92
2023-02-28T23:01:30.593Z,37.58
2023-02-28T23:03:58.815Z,37.63
2023-02-28T23:06:34.834Z,36.81
2023-02-28T23:09:05.745Z,35.96
2023-02-28T23:11:39.792Z,36.67
2023-02-28T23:14:07.922Z,37.40
2023-02-28T23:16:37.375Z,37.66
2023-02-28T23:19:11.308Z,37.93
2023-02-28T23:21:39.616Z,38.21
2023-02-28T23:24:14.404Z,37.81
2023-02-28T23:26:44.955Z,38.59
2023-02-28T23:29:13.703Z,38.58
2023-02-28T23:31:41.384Z,38.31
2023-02-28T23:34:09.692Z,38.72
2023-02-28T23:36:47.152Z,40.08
2023-02-28T23:39:19.138Z,40.43
2023-02-28T23:41:47.233Z,40.56
2023-02-28T23:44:17.027Z,41.23
2023-02-28T23:46:46.845Z,40.94
2023-02-28T23:49:16.044Z,40.34
2023-02-28T23:51:45.032Z,40.40
2023-02-28T23:54:12.530Z,39.98
2023-02-28T23:56:39.966Z,41.93
2023-02-28T23:59:07.734Z,40.73
